METAR

TAF

 




Rio de Janeiro / Galeão - Antonio Carlos Jobim, RJ - SBGL


25 de Outubro de 2014 às 04:00 (UTC)


Tempo:

Céu sem restrições operacionais para aviação

Temperatura:

22ºC

Umidade Relativa:

73%

Localização:
Ajuste do Altímetro:

1013 hPa

Visibilidade Horizontal Predominante:

Igual ou acima de 10 Km

Direção e Velocidade do Vento:

110° 5,56 Km/h


Observação Meteorológica:

METAR SBGL 250400Z 11003KT CAVOK 22/17 Q1013=